Skip Navigation Links
NOAA logo - Click to go to the NOAA homepage
NOAA's National Weather Service
Alaska Aviation Weather Unit
  NWS logo - Click to go to the NWS homepage
Left Navbar Graphic     19 AKDT = 03 GMT

   
NOAA is celebrating 200 years of science, service, and stewardship. Visit the NOAA 200th celebration Web site to learn more.
USA.gov is the U.S. Government's official Web portal to all Federal, state and local government Web resources and services.
Facebook
NWS on Facebook

Important Change Regarding the AAWU Web Presence

 

Over the last several months, the AAWU has been working to navigate its webpages to a nationally supported server. Security, as well as other needs, have necessitated the change.  In the process, we have made an effort to enhance the functionality of our website, as well as some of our products. As of June 20, 2017, aawu.arh.noaa.gov will be discontinued. The new AAWU web address is weather.gov/aawu. It is now live and will run in-parallel with the old site until it is discontinued. Please send any feedback or questions regarding the new webpages to nws.ar.aawu.webauthors@noaa.gov.  Thank you for your patience during this time of transition.
AAWU Home :: Display TAF Add Bookmark
TAF PAVD 242322Z 2500/2524 27007KT 6SM -RA BR SCT015 OVC035
     FM251200 VRB04KT P6SM -SHRA SCT030 OVC045 AMD LTD TO CLD VIS
      AND WIND=
PAVD 242116Z 27006KT 6SM FEW010 SCT015 OVC035 07/03 A3015=

METAR PAVD 242116Z 27006KT 6SM FEW010 SCT015 OVC035 07/03 A3015 RMK
 AO1
 2047Z WEA: -RA BR TWR WND 22006KT=

PAVD 242136Z 26005KT 6SM FEW010 SCT015 OVC035 07/04 A3014=

METAR PAVD 242136Z 26005KT 6SM FEW010 SCT015 OVC035 07/04 A3014 RMK AO1
     2047Z WEA: -RA BR TWR WND 22006KT=

METAR PAVD 242156Z 25007KT 6SM FEW008 SCT014 OVC030 07/03 A3014=

PAVD 242216Z 27008KT 6SM FEW008 SCT014 OVC030 07/03 A3014=

METAR PAVD 242216Z 27008KT 6SM FEW008 SCT014 OVC030 07/03 A3014 RMK AO1
     2147Z WEA: -RA BR TWR WND 22008KT P0001=

PAVD 242236Z 27008KT 6SM FEW008 SCT014 OVC030 07/04 A3014=

METAR PAVD 242236Z 27008KT 6SM FEW008 SCT014 OVC030 07/04 A3014 RMK AO1
     2147Z WEA: -RA BR TWR WND 22008KT P0002=

METAR PAVD 242256Z 26007KT 8SM SCT018 BKN035 OVC060 07/04 A3014=

PAVD 242316Z 27007KT 8SM SCT018 BKN035 OVC060 07/04 A3014=

METAR PAVD 242316Z 27007KT 8SM SCT018 BKN035 OVC060 07/04 A3014 RMK AO1
     2247Z WEA: -RA TWR WND 24008KT P0001=

PAVD 242336Z 26006KT 8SM SCT018 BKN035 OVC060 07/03 A3013=

METAR PAVD 242336Z 26006KT 8SM SCT018 BKN035 OVC060 07/03 A3013 RMK AO1
     2247Z WEA: -RA TWR WND 24008KT P0002=

METAR PAVD 242356Z 26007KT 8SM FEW001 BKN030 OVC050 07/03 A3012=

PAVD 250016Z 26006KT 8SM FEW001 BKN030 OVC050 06/03 A3012=

METAR PAVD 250016Z 26006KT 8SM FEW001 BKN030 OVC050 06/03 A3012 RMK AO1
     2347Z WEA: -RA TWR WND 23007KT P0002=

PAVD 250036Z 27007KT 8SM FEW001 BKN030 OVC050 07/03 A3012=

METAR PAVD 250036Z 27007KT 8SM FEW001 BKN030 OVC050 07/03 A3012 RMK AO1
     2347Z WEA: -RA TWR WND 23007KT=

METAR PAVD 250056Z 29008KT 8SM FEW001 BKN030 OVC050 07/03 A3011=

METAR PAVD 250116Z 27009KT 8SM FEW001 BKN030 OVC050 06/03 A3011=

METAR PAVD 250116Z 27009KT 8SM FEW001 BKN030 OVC050 06/03 A3011 RMK AO1
     0047Z WEA: -RA TWR WND 24010KT=

METAR PAVD 250136Z 27006KT 8SM FEW001 BKN030 OVC050 06/04 A3011=

METAR PAVD 250136Z 27006KT 8SM FEW001 BKN030 OVC050 06/04 A3011 RMK
 AO1
 0047Z WEA: -RA TWR WND 24010KT=

METAR PAVD 250156Z 26005KT 7SM FEW001 BKN030 OVC050 06/03 A3011=

PAVD 250216Z 00000KT 7SM FEW001 BKN030 OVC050 06/03 A3009=

METAR PAVD 250216Z 00000KT 7SM FEW001 BKN030 OVC050 06/03 A3009 RMK AO1
     0147Z WEA: -RA TWR WND 24007KT P0001=

PAVD 250236Z 27004KT 7SM FEW001 BKN030 OVC050 06/03 A3008=

METAR PAVD 250236Z 27004KT 7SM FEW001 BKN030 OVC050 06/03 A3008 RMK AO1
     0147Z WEA: -RA TWR WND 24007KT P0002=

METAR PAVD 250256Z 26004KT 7SM FEW001 BKN030 OVC050 06/03 A3008 RMK
 AO1
 0247Z WEA: -RA TWR WND 00000KT P0003 60005=


NOAA's National Weather Service
Alaska Aviation Weather Unit
6930 Sand Lake Road
Anchorage, AK 99502-1845
Disclaimer
Credits
Glossary
Privacy Policy
About Us
Career Opportunities
Contact AAWU Internet Services Site last modified: April, 17th 2012